KRZN

Details ICAO KRZN
Name BURNETT CO
Region United States
Timezone America/Chicago (UTC-6.0)
Plans Departing 1
Arriving 1
Stats Elevation 989 ft / 301 m (AMSL)
Location 45.822677° -92.372490°
Runways 2
Magnetic Variation 0.633° W
Sunrise 2017-12-14 13:44:49 UTC / 2017-12-14 07:44:49 Local
Sunset 2017-12-14 22:26:34 UTC / 2017-12-14 16:26:34 Local
Advertisement - Login to hide

Runways

ID Width Length Bearing (true) Bearing (mag) Surface Threshold Offset Overrun Length
04 75 ft / 23 m 3,897 ft / 1,188 m 45.34° 45.97° Asphalt 0 ft / 0 m 0 ft / 0 m
13 75 ft / 23 m 3,497 ft / 1,066 m 136.68° 137.31° Asphalt 0 ft / 0 m 0 ft / 0 m
22 75 ft / 23 m 3,897 ft / 1,188 m 225.34° 225.97° Asphalt 0 ft / 0 m 0 ft / 0 m
31 75 ft / 23 m 3,497 ft / 1,066 m 316.69° 317.32° Asphalt 0 ft / 0 m 0 ft / 0 m

Map

Weather


0- 5 10 15 20 25 30 35+ Temperature / ° C

Clouds and Precipitation
Forecast for 2017-12-15 00:00 UTC. Updated 2 hours ago

Ground ~20,000 ft ~40,000 ft Winds

METAR

KRZN 142035Z AUTO 28005KT 10SM -SN OVC017 M07/M10 A2998 RMK AO2 T10721105

TAF

Not found

Frequencies

Recorded 118.32 MHz AWOS 3
Unicom 122.80 MHz CTAF/UNICOM
Warning: Do not use this data for real-world aviation or navigation. No guarantee of current accuracy is given.